Time;durP1;ratioP1;P1;durP2;ratioP2;P2;SDS_P1;SDS_P2;PMS_P1;PMS_P2;Temp;Humidity;BMP_temperature;BMP_pressure;BME280_temperature;BME280_humidity;BME280_pressure;Samples;Min_cycle;Max_cycle;Signal;HPM_P1;HPM_P2
2023/06/19 00:01:58;;;;;;;9.20;5.50;;;21.20;98.80;;;;;;5068570;28;20025;-74
2023/06/19 00:04:24;;;;;;;9.25;6.15;;;21.10;99.10;;;;;;5071989;28;20028;-74
2023/06/19 00:06:49;;;;;;;9.38;5.65;;;21.20;99.00;;;;;;5072159;28;20024;-74
2023/06/19 00:09:15;;;;;;;8.18;5.50;;;21.30;99.10;;;;;;5073670;28;20036;-74
2023/06/19 00:11:41;;;;;;;8.95;6.05;;;21.30;99.10;;;;;;5067826;28;20028;-74
2023/06/19 00:14:06;;;;;;;8.32;6.00;;;21.20;99.10;;;;;;5068845;28;20029;-74
2023/06/19 00:16:32;;;;;;;8.55;6.30;;;21.20;99.20;;;;;;5074573;28;20024;-74
2023/06/19 00:18:58;;;;;;;7.78;5.72;;;21.10;99.50;;;;;;5071089;28;20051;-74
2023/06/19 00:21:25;;;;;;;7.88;5.80;;;21.10;99.60;;;;;;5070006;28;20078;-75
2023/06/19 00:23:51;;;;;;;8.75;5.88;;;21.10;99.60;;;;;;5069945;28;20079;-74
2023/06/19 00:26:17;;;;;;;9.95;6.07;;;21.10;99.70;;;;;;5068429;28;20475;-74
2023/06/19 00:28:45;;;;;;;9.15;6.72;;;21.10;99.60;;;;;;5070158;28;20501;-74
2023/06/19 00:31:13;;;;;;;11.02;6.30;;;21.10;99.70;;;;;;5068432;28;20051;-74
2023/06/19 00:33:39;;;;;;;7.93;5.75;;;21.10;99.90;;;;;;5067904;28;20107;-74
2023/06/19 00:36:12;;;;;;;9.07;6.43;;;21.00;99.90;;;;;;5070407;28;20028;-74
2023/06/19 00:38:41;;;;;;;7.75;5.50;;;20.90;99.90;;;;;;5069081;28;20037;-74
2023/06/19 00:41:07;;;;;;;9.45;7.10;;;20.80;99.90;;;;;;5067693;28;20104;-74
2023/06/19 00:43:33;;;;;;;10.73;6.88;;;20.80;99.90;;;;;;5069320;28;20115;-75
2023/06/19 00:46:00;;;;;;;9.85;6.57;;;20.90;99.90;;;;;;5068241;28;20035;-74
2023/06/19 00:48:31;;;;;;;10.20;6.47;;;20.90;99.80;;;;;;5077386;28;20363;-75
2023/06/19 00:50:57;;;;;;;10.35;6.47;;;20.80;99.90;;;;;;5070295;28;20041;-75
2023/06/19 00:53:24;;;;;;;10.82;6.90;;;20.70;99.90;;;;;;5069535;28;20024;-74
2023/06/19 00:55:51;;;;;;;9.25;6.80;;;20.60;99.90;;;;;;5066498;28;20449;-75
2023/06/19 00:58:26;;;;;;;10.45;6.13;;;20.60;99.90;;;;;;5068512;28;20040;-74
2023/06/19 01:00:52;;;;;;;9.02;6.50;;;20.50;99.90;;;;;;5072257;28;20035;-74
2023/06/19 01:03:18;;;;;;;12.25;6.45;;;20.50;99.90;;;;;;5076572;28;20032;-74
2023/06/19 01:05:47;;;;;;;10.93;6.57;;;20.40;99.90;;;;;;5065926;28;20417;-74
2023/06/19 01:08:37;;;;;;;9.90;6.05;;;20.40;99.90;;;;;;5070257;28;20020;-74
2023/06/19 01:11:04;;;;;;;9.85;6.13;;;20.30;99.90;;;;;;5069613;28;20024;-74
2023/06/19 01:14:13;;;;;;;9.65;6.40;;;20.30;99.90;;;;;;5068698;28;20033;-75
2023/06/19 01:16:40;;;;;;;9.13;6.78;;;20.00;99.90;;;;;;5050169;28;20043;-75
2023/06/19 01:19:10;;;;;;;7.80;5.45;;;20.00;99.90;;;;;;5076157;28;20382;-74
2023/06/19 01:21:36;;;;;;;8.20;6.00;;;19.90;99.90;;;;;;5067841;28;20112;-74
2023/06/19 01:24:03;;;;;;;8.10;6.13;;;19.90;99.90;;;;;;5073901;28;20404;-74
2023/06/19 01:26:29;;;;;;;12.15;6.38;;;20.00;99.90;;;;;;5071513;28;20086;-74
2023/06/19 01:28:56;;;;;;;8.98;5.70;;;20.10;99.90;;;;;;5071019;28;20107;-74
2023/06/19 01:31:34;;;;;;;10.00;6.57;;;20.10;99.90;;;;;;5067625;28;20032;-74
2023/06/19 01:34:02;;;;;;;8.77;6.90;;;20.10;99.90;;;;;;5069022;28;20041;-74
2023/06/19 01:36:29;;;;;;;11.32;6.70;;;20.30;99.90;;;;;;5069483;28;20479;-74
2023/06/19 01:38:58;;;;;;;8.10;6.10;;;20.40;99.90;;;;;;5073134;28;20036;-74
2023/06/19 01:41:25;;;;;;;8.98;6.72;;;20.60;99.90;;;;;;5068665;28;20047;-74
2023/06/19 01:43:51;;;;;;;9.63;7.18;;;20.50;99.90;;;;;;5067618;28;20386;-74
2023/06/19 01:46:18;;;;;;;10.48;7.03;;;20.50;99.90;;;;;;5072029;28;20111;-75
2023/06/19 01:48:43;;;;;;;9.75;6.90;;;20.50;99.90;;;;;;5067474;28;20051;-74
2023/06/19 01:51:10;;;;;;;8.95;6.60;;;20.50;99.90;;;;;;5070898;28;20127;-74
2023/06/19 01:53:35;;;;;;;10.68;6.32;;;20.60;99.90;;;;;;5074829;28;20036;-74
2023/06/19 01:56:01;;;;;;;9.18;6.00;;;20.40;99.90;;;;;;5069793;28;20049;-75
2023/06/19 01:58:27;;;;;;;8.10;6.18;;;20.40;99.90;;;;;;5068900;28;20071;-74
2023/06/19 02:00:53;;;;;;;10.77;6.55;;;20.30;99.90;;;;;;5068266;28;20107;-74
2023/06/19 02:03:18;;;;;;;10.82;7.32;;;20.40;99.90;;;;;;5067805;28;20424;-74
2023/06/19 02:05:44;;;;;;;10.60;6.35;;;20.40;99.90;;;;;;5067539;28;20047;-74
2023/06/19 02:08:10;;;;;;;8.95;6.63;;;20.40;99.90;;;;;;5068774;28;20466;-74
2023/06/19 02:10:35;;;;;;;9.48;6.28;;;20.20;99.90;;;;;;5069361;28;20054;-74
2023/06/19 02:13:01;;;;;;;10.20;6.55;;;20.20;99.90;;;;;;5072713;28;20029;-74
2023/06/19 02:15:27;;;;;;;10.73;6.70;;;20.20;99.90;;;;;;5067032;28;20032;-74
2023/06/19 02:17:57;;;;;;;8.65;5.97;;;20.20;99.90;;;;;;5068227;28;20025;-74
2023/06/19 02:20:26;;;;;;;9.45;6.70;;;20.30;99.90;;;;;;5066760;28;20033;-74
2023/06/19 02:22:52;;;;;;;9.98;6.88;;;20.20;99.90;;;;;;5070321;28;20059;-73
2023/06/19 02:25:18;;;;;;;11.15;6.82;;;20.20;99.90;;;;;;5070805;28;20128;-72
2023/06/19 02:27:44;;;;;;;9.90;6.63;;;20.10;99.90;;;;;;5069453;28;20024;-73
2023/06/19 02:30:10;;;;;;;13.68;7.28;;;20.20;99.90;;;;;;5074006;28;20047;-72
2023/06/19 02:32:36;;;;;;;8.52;6.82;;;20.20;99.90;;;;;;5067121;28;20483;-72
2023/06/19 02:35:08;;;;;;;11.25;6.47;;;20.20;99.90;;;;;;5075570;28;20030;-72
2023/06/19 02:37:35;;;;;;;8.68;6.63;;;20.30;99.90;;;;;;5070233;28;20062;-73
2023/06/19 02:40:03;;;;;;;15.50;7.00;;;20.40;99.90;;;;;;5071201;28;20090;-72
2023/06/19 02:42:29;;;;;;;9.43;6.60;;;20.40;99.90;;;;;;5078007;28;20037;-72
2023/06/19 02:44:54;;;;;;;8.20;6.13;;;20.30;99.90;;;;;;5069706;28;20036;-73
2023/06/19 02:47:20;;;;;;;8.50;6.00;;;20.40;99.90;;;;;;5071223;28;20025;-72
2023/06/19 02:49:45;;;;;;;13.02;7.15;;;20.40;99.90;;;;;;5070226;28;20029;-72
2023/06/19 02:52:11;;;;;;;9.77;7.65;;;20.30;99.90;;;;;;5079741;28;20110;-73
2023/06/19 02:54:37;;;;;;;11.50;7.78;;;20.20;99.90;;;;;;5080966;28;20106;-72
2023/06/19 02:57:02;;;;;;;9.68;7.68;;;20.20;99.90;;;;;;5078858;28;20056;-73
2023/06/19 02:59:28;;;;;;;9.23;6.55;;;20.30;99.90;;;;;;5070589;28;20560;-73
2023/06/19 03:01:54;;;;;;;9.40;7.57;;;20.20;99.90;;;;;;5072218;28;20039;-72
2023/06/19 03:04:19;;;;;;;8.07;6.82;;;20.00;99.90;;;;;;5064781;28;20093;-72
2023/06/19 03:06:45;;;;;;;9.52;6.38;;;20.10;99.90;;;;;;5065082;28;20027;-73
2023/06/19 03:09:14;;;;;;;10.50;7.15;;;20.10;99.90;;;;;;5065089;28;20031;-72
2023/06/19 03:11:40;;;;;;;13.68;8.07;;;20.00;99.90;;;;;;5065323;28;20085;-72
2023/06/19 03:14:07;;;;;;;11.57;7.40;;;19.90;99.90;;;;;;5065028;28;20104;-72
2023/06/19 03:16:33;;;;;;;8.93;6.80;;;19.80;99.90;;;;;;5071723;28;20104;-72
2023/06/19 03:19:00;;;;;;;12.43;7.20;;;19.70;99.90;;;;;;5067335;28;20036;-72
2023/06/19 03:21:26;;;;;;;8.70;6.82;;;19.60;99.90;;;;;;5063884;28;20058;-73
2023/06/19 03:23:52;;;;;;;22.88;8.05;;;19.90;99.90;;;;;;5066899;28;20032;-73
2023/06/19 03:26:22;;;;;;;10.10;6.93;;;19.80;99.90;;;;;;5065294;28;20036;-72
2023/06/19 03:28:48;;;;;;;11.55;6.80;;;19.90;99.90;;;;;;5065347;28;20129;-72
2023/06/19 03:31:14;;;;;;;10.73;6.70;;;20.00;99.90;;;;;;5073061;28;20119;-73
2023/06/19 03:33:40;;;;;;;10.60;6.30;;;20.00;99.90;;;;;;5073126;28;20497;-72
2023/06/19 03:36:06;;;;;;;11.57;7.22;;;19.90;99.90;;;;;;5063530;28;20025;-72
2023/06/19 03:38:31;;;;;;;8.77;6.97;;;19.90;99.90;;;;;;5069312;28;20048;-72
2023/06/19 03:40:57;;;;;;;21.48;8.70;;;19.80;99.90;;;;;;5062106;28;20029;-73
2023/06/19 03:43:23;;;;;;;27.58;10.18;;;19.70;99.90;;;;;;5063073;28;20028;-73
2023/06/19 03:45:48;;;;;;;17.13;9.18;;;19.70;99.90;;;;;;5066688;28;20028;-72
2023/06/19 03:48:15;;;;;;;17.35;7.85;;;19.70;99.90;;;;;;5065309;28;20024;-73
2023/06/19 03:50:41;;;;;;;11.23;7.55;;;19.30;99.90;;;;;;5064925;28;20028;-72
2023/06/19 03:53:07;;;;;;;10.30;6.82;;;19.60;99.90;;;;;;5064765;28;20025;-72
2023/06/19 03:55:33;;;;;;;9.27;6.68;;;19.80;99.90;;;;;;5065381;28;20120;-73
2023/06/19 03:57:59;;;;;;;8.40;7.15;;;19.50;99.90;;;;;;5067183;28;20060;-72
2023/06/19 04:00:24;;;;;;;9.57;6.78;;;19.20;99.90;;;;;;5072190;28;20103;-72
2023/06/19 04:02:50;;;;;;;12.40;8.38;;;19.10;99.90;;;;;;5062247;28;20058;-72
2023/06/19 04:05:16;;;;;;;10.63;7.15;;;19.10;99.90;;;;;;5060908;28;20067;-73
2023/06/19 04:07:42;;;;;;;9.07;6.15;;;19.10;99.90;;;;;;5061379;28;20024;-73
2023/06/19 04:10:08;;;;;;;11.50;7.13;;;19.20;99.90;;;;;;5065778;28;20566;-72
2023/06/19 04:12:34;;;;;;;10.45;6.40;;;19.30;99.90;;;;;;5061246;28;20016;-72
2023/06/19 04:14:59;;;;;;;9.32;7.18;;;19.50;99.90;;;;;;5062692;28;20047;-73
2023/06/19 04:17:25;;;;;;;12.57;6.55;;;19.50;99.90;;;;;;5061419;28;20036;-73
2023/06/19 04:19:51;;;;;;;10.20;7.03;;;19.60;99.90;;;;;;5061216;28;20032;-73
2023/06/19 04:22:16;;;;;;;10.23;7.10;;;19.50;99.90;;;;;;5063778;28;20036;-74
2023/06/19 04:24:42;;;;;;;9.88;7.28;;;19.50;99.90;;;;;;5061019;28;20530;-74
2023/06/19 04:27:08;;;;;;;8.07;6.40;;;19.70;99.90;;;;;;5065517;28;20051;-74
2023/06/19 04:29:35;;;;;;;9.85;6.82;;;19.80;99.90;;;;;;5061474;28;20025;-74
2023/06/19 04:32:03;;;;;;;9.95;7.95;;;19.80;99.90;;;;;;5067414;28;20032;-74
2023/06/19 04:34:29;;;;;;;8.93;7.55;;;19.90;99.90;;;;;;5064016;28;20035;-74
2023/06/19 04:36:58;;;;;;;10.63;7.80;;;19.90;99.90;;;;;;5061160;28;20093;-74
2023/06/19 04:39:24;;;;;;;10.63;6.85;;;20.00;99.90;;;;;;5058892;28;20063;-74
2023/06/19 04:41:50;;;;;;;9.15;7.25;;;20.00;99.90;;;;;;5068065;28;20025;-74
2023/06/19 04:44:16;;;;;;;9.48;7.13;;;19.90;99.90;;;;;;5061952;28;20093;-74
2023/06/19 04:46:43;;;;;;;10.25;7.82;;;19.80;99.90;;;;;;5060363;28;20029;-74
2023/06/19 04:49:10;;;;;;;10.48;8.40;;;19.70;99.90;;;;;;5069605;28;20024;-74
2023/06/19 04:51:36;;;;;;;12.30;8.02;;;19.70;99.90;;;;;;5064159;28;20028;-74
2023/06/19 04:54:02;;;;;;;13.23;8.13;;;19.80;99.90;;;;;;5061671;28;20091;-74
2023/06/19 04:56:28;;;;;;;11.18;7.43;;;19.90;99.90;;;;;;5061162;28;20040;-74
2023/06/19 04:58:59;;;;;;;11.90;7.75;;;20.00;99.90;;;;;;5060641;28;20059;-74
2023/06/19 05:01:28;;;;;;;16.75;8.30;;;19.90;99.90;;;;;;5064458;28;20028;-74
2023/06/19 05:03:55;;;;;;;11.57;6.60;;;19.90;99.90;;;;;;5060421;28;20390;-74
2023/06/19 05:06:23;;;;;;;9.27;7.07;;;19.70;99.90;;;;;;5060064;28;20024;-73
2023/06/19 05:08:49;;;;;;;10.70;7.63;;;19.80;99.90;;;;;;5063729;28;20024;-74
2023/06/19 05:11:15;;;;;;;10.00;7.45;;;19.70;99.90;;;;;;5061722;28;20051;-74
2023/06/19 05:13:40;;;;;;;9.40;7.47;;;19.70;99.90;;;;;;5061276;28;20025;-74
2023/06/19 05:16:06;;;;;;;12.30;7.82;;;19.80;99.90;;;;;;5064988;28;20091;-74
2023/06/19 05:18:32;;;;;;;14.70;8.35;;;19.80;99.90;;;;;;5062781;28;20036;-74
2023/06/19 05:20:57;;;;;;;13.55;8.25;;;19.80;99.90;;;;;;5059958;28;20431;-74
2023/06/19 05:23:23;;;;;;;12.02;8.57;;;19.70;99.90;;;;;;5062942;28;20084;-74
2023/06/19 05:25:49;;;;;;;15.18;8.98;;;19.90;99.90;;;;;;5060427;28;20043;-74
2023/06/19 05:28:14;;;;;;;11.82;7.93;;;19.90;99.90;;;;;;5071960;28;20024;-74
2023/06/19 05:30:40;;;;;;;14.07;8.98;;;20.10;99.90;;;;;;5064164;28;20031;-73
2023/06/19 05:33:06;;;;;;;14.13;8.10;;;20.20;99.90;;;;;;5060720;28;20021;-74
2023/06/19 05:35:31;;;;;;;12.18;7.95;;;20.40;99.90;;;;;;5063954;28;20044;-74
2023/06/19 05:37:57;;;;;;;9.65;7.68;;;20.40;99.90;;;;;;5067945;28;20037;-74
2023/06/19 05:40:23;;;;;;;11.10;8.70;;;20.50;99.90;;;;;;5068571;28;20028;-74
2023/06/19 05:42:49;;;;;;;10.40;8.00;;;20.60;99.90;;;;;;5059763;28;20554;-75
2023/06/19 05:45:14;;;;;;;11.93;7.97;;;20.50;99.90;;;;;;5060733;28;20047;-74
2023/06/19 05:47:40;;;;;;;13.13;9.35;;;20.50;99.90;;;;;;5060552;28;20028;-74
2023/06/19 05:50:06;;;;;;;13.25;9.13;;;20.50;99.90;;;;;;5059863;28;20127;-74
2023/06/19 05:52:32;;;;;;;12.05;8.55;;;20.60;99.90;;;;;;5065845;28;20048;-75
2023/06/19 05:54:58;;;;;;;11.50;8.30;;;20.60;99.90;;;;;;5062228;28;20101;-74
2023/06/19 05:57:24;;;;;;;15.48;8.27;;;20.70;99.90;;;;;;5062059;28;20095;-75
2023/06/19 05:59:50;;;;;;;14.23;8.52;;;20.80;99.90;;;;;;5060328;28;20067;-74
2023/06/19 06:02:17;;;;;;;10.48;8.55;;;20.80;99.90;;;;;;5064485;28;20020;-74
2023/06/19 06:04:43;;;;;;;12.07;8.13;;;20.80;99.90;;;;;;5060677;28;20028;-74
2023/06/19 06:07:08;;;;;;;13.05;8.52;;;20.80;99.90;;;;;;5071385;28;20946;-73
2023/06/19 06:09:34;;;;;;;11.98;9.32;;;20.90;99.90;;;;;;5066298;28;20032;-74
2023/06/19 06:12:00;;;;;;;12.68;9.95;;;21.00;99.90;;;;;;5068769;28;20028;-74
2023/06/19 06:14:26;;;;;;;13.48;9.25;;;20.90;99.90;;;;;;5073408;28;20083;-75
2023/06/19 06:16:53;;;;;;;12.95;10.20;;;21.00;99.90;;;;;;5066636;28;20024;-74
2023/06/19 06:19:22;;;;;;;12.43;10.23;;;20.80;99.90;;;;;;5073466;28;20075;-74
2023/06/19 06:21:48;;;;;;;14.35;9.63;;;20.90;99.90;;;;;;5069792;28;20030;-74
2023/06/19 06:24:14;;;;;;;11.18;8.35;;;21.00;99.90;;;;;;5077436;28;20023;-75
2023/06/19 06:26:39;;;;;;;14.90;9.75;;;21.10;99.90;;;;;;5065359;28;20542;-74
2023/06/19 06:29:05;;;;;;;14.73;9.35;;;21.20;99.90;;;;;;5076820;28;20474;-74
2023/06/19 06:31:31;;;;;;;11.70;8.63;;;21.10;99.90;;;;;;5070098;28;20541;-74
2023/06/19 06:33:56;;;;;;;11.50;9.10;;;21.10;99.90;;;;;;5065568;28;20032;-74
2023/06/19 06:36:22;;;;;;;10.93;8.85;;;21.10;99.90;;;;;;5074317;28;20117;-74
2023/06/19 06:38:48;;;;;;;12.52;9.65;;;21.10;99.90;;;;;;5068238;28;20062;-74
2023/06/19 06:41:13;;;;;;;15.02;9.23;;;21.10;99.90;;;;;;5065747;28;20363;-74
2023/06/19 06:43:42;;;;;;;17.92;10.25;;;21.20;99.90;;;;;;5072262;28;20036;-74
2023/06/19 06:46:08;;;;;;;14.27;8.63;;;21.30;99.90;;;;;;5078568;28;20221;-74
2023/06/19 06:48:34;;;;;;;11.02;8.95;;;21.30;99.90;;;;;;5069732;28;20031;-74
2023/06/19 06:51:01;;;;;;;23.63;9.45;;;21.40;99.90;;;;;;5072128;28;20409;-74
2023/06/19 06:53:31;;;;;;;20.90;9.60;;;21.50;99.90;;;;;;5075213;28;20043;-74
2023/06/19 06:55:57;;;;;;;14.43;8.80;;;21.60;99.90;;;;;;5065097;28;20067;-74
2023/06/19 06:58:23;;;;;;;10.52;8.40;;;21.60;99.90;;;;;;5069282;28;20398;-75
2023/06/19 07:00:50;;;;;;;12.93;8.48;;;21.80;99.90;;;;;;5066450;28;20036;-74
2023/06/19 07:03:16;;;;;;;11.43;8.73;;;22.00;99.90;;;;;;5076402;28;20103;-74
2023/06/19 07:05:42;;;;;;;11.68;9.30;;;22.30;99.90;;;;;;5067861;28;20111;-75
2023/06/19 07:08:08;;;;;;;12.13;8.65;;;22.60;99.90;;;;;;5064634;28;20031;-74
2023/06/19 07:10:33;;;;;;;11.95;9.40;;;22.70;99.90;;;;;;5067216;28;20028;-74
2023/06/19 07:12:59;;;;;;;10.80;8.30;;;22.90;99.90;;;;;;5068469;28;20359;-74
2023/06/19 07:15:24;;;;;;;16.48;8.50;;;23.10;99.90;;;;;;5076677;28;20452;-75
2023/06/19 07:17:50;;;;;;;12.35;8.95;;;23.20;99.90;;;;;;5077451;28;20024;-74
2023/06/19 07:20:16;;;;;;;11.60;8.25;;;23.50;99.90;;;;;;5066651;28;20041;-75
2023/06/19 07:22:42;;;;;;;10.45;8.02;;;23.60;99.80;;;;;;5065646;28;20081;-74
2023/06/19 07:25:10;;;;;;;12.95;9.43;;;23.80;99.50;;;;;;5071680;28;20043;-74
2023/06/19 07:27:36;;;;;;;12.85;8.45;;;24.00;99.40;;;;;;5072155;28;20027;-75
2023/06/19 07:30:02;;;;;;;11.98;8.15;;;24.20;98.90;;;;;;5072560;28;20035;-75
2023/06/19 07:32:28;;;;;;;9.63;8.60;;;24.60;98.00;;;;;;5066465;28;20089;-74
2023/06/19 07:34:54;;;;;;;11.32;8.40;;;25.40;97.30;;;;;;5071301;28;20032;-75
2023/06/19 07:37:20;;;;;;;12.63;9.68;;;26.10;96.20;;;;;;5072041;28;20074;-74
2023/06/19 07:39:46;;;;;;;14.02;8.52;;;26.70;95.60;;;;;;5070619;28;20038;-75
2023/06/19 07:42:14;;;;;;;12.63;8.88;;;26.70;95.10;;;;;;5062804;28;20039;-75
2023/06/19 07:44:40;;;;;;;12.88;9.07;;;27.00;94.50;;;;;;5064223;28;20562;-75
2023/06/19 07:47:06;;;;;;;15.60;9.85;;;26.80;94.80;;;;;;5064287;28;20020;-74
2023/06/19 07:49:32;;;;;;;11.93;8.05;;;26.90;94.60;;;;;;5067425;28;20040;-74
2023/06/19 07:51:58;;;;;;;11.55;9.38;;;26.50;95.20;;;;;;5069985;28;20371;-75
2023/06/19 07:54:23;;;;;;;12.68;8.23;;;26.40;95.10;;;;;;5069840;28;20031;-75
2023/06/19 07:56:49;;;;;;;11.02;9.05;;;26.30;95.00;;;;;;5070969;28;20495;-75
2023/06/19 07:59:15;;;;;;;12.52;9.00;;;26.10;95.40;;;;;;5064303;28;20077;-75
2023/06/19 08:01:40;;;;;;;12.55;9.60;;;26.50;96.20;;;;;;5064067;28;20108;-75
2023/06/19 08:04:06;;;;;;;12.88;9.35;;;26.60;95.90;;;;;;5062812;28;20466;-76
2023/06/19 08:06:32;;;;;;;14.52;8.52;;;26.30;94.90;;;;;;5066429;28;20028;-75
2023/06/19 08:08:58;;;;;;;16.20;9.57;;;26.30;95.50;;;;;;5069140;28;20054;-74
2023/06/19 08:11:23;;;;;;;11.52;9.20;;;26.60;95.40;;;;;;5067613;28;20147;-75
2023/06/19 08:13:49;;;;;;;14.10;8.93;;;26.40;94.70;;;;;;5070280;28;20035;-75
2023/06/19 08:16:15;;;;;;;10.13;8.55;;;26.20;94.90;;;;;;5064503;28;20028;-75
2023/06/19 08:18:42;;;;;;;15.15;9.55;;;25.50;95.10;;;;;;5062803;28;20382;-75
2023/06/19 08:21:07;;;;;;;12.20;9.15;;;25.80;95.20;;;;;;5066548;28;20111;-75
2023/06/19 08:23:33;;;;;;;12.82;9.32;;;26.00;94.90;;;;;;5072468;28;20464;-75
2023/06/19 08:25:59;;;;;;;13.95;8.93;;;26.10;95.10;;;;;;5064662;28;20040;-75
2023/06/19 08:28:24;;;;;;;11.93;9.38;;;26.20;95.20;;;;;;5066298;28;20081;-75
2023/06/19 08:30:50;;;;;;;11.13;9.13;;;26.70;95.20;;;;;;5064987;28;20348;-75
2023/06/19 08:33:16;;;;;;;16.73;9.10;;;26.60;95.00;;;;;;5063476;28;20378;-75
2023/06/19 08:35:42;;;;;;;11.15;8.68;;;26.70;95.00;;;;;;5065130;28;20040;-76
2023/06/19 08:38:07;;;;;;;11.38;8.93;;;26.50;94.70;;;;;;5065855;28;20110;-76
2023/06/19 08:40:33;;;;;;;11.55;8.13;;;26.70;94.60;;;;;;5062801;28;20024;-75
2023/06/19 08:42:59;;;;;;;14.75;8.65;;;26.90;94.50;;;;;;5071377;28;20028;-75
2023/06/19 08:45:27;;;;;;;14.32;9.43;;;26.80;94.50;;;;;;5062993;28;20085;-76
2023/06/19 08:48:03;;;;;;;30.73;10.85;;;26.60;94.60;;;;;;5065859;28;20055;-75
2023/06/19 08:50:32;;;;;;;10.95;8.98;;;27.00;95.70;;;;;;5069707;28;20076;-75
2023/06/19 08:52:58;;;;;;;15.23;10.55;;;27.20;94.10;;;;;;5069053;28;20028;-75
2023/06/19 08:55:24;;;;;;;13.15;8.93;;;27.10;93.80;;;;;;5068021;28;20023;-75
2023/06/19 08:57:51;;;;;;;16.88;9.65;;;27.40;94.80;;;;;;5069742;28;20059;-75
2023/06/19 09:00:26;;;;;;;15.23;9.70;;;27.50;95.10;;;;;;5067231;28;20048;-75
2023/06/19 09:02:52;;;;;;;;;;;27.30;94.50;;;;;;5063673;28;20025;-76
2023/06/19 09:05:19;;;;;;;11.57;9.25;;;27.40;94.10;;;;;;5062557;28;20366;-76
2023/06/19 09:07:55;;;;;;;17.73;9.50;;;27.60;94.10;;;;;;5066335;28;20024;-75
2023/06/19 09:10:21;;;;;;;17.52;9.43;;;27.30;94.80;;;;;;5071596;28;20036;-76
2023/06/19 09:13:01;;;;;;;12.23;9.73;;;27.70;94.70;;;;;;5064963;28;20442;-75
2023/06/19 09:15:32;;;;;;;11.90;9.07;;;28.00;95.10;;;;;;5060047;28;20032;-76
2023/06/19 09:18:08;;;;;;;10.30;9.13;;;27.90;94.50;;;;;;5068731;28;20028;-75
2023/06/19 09:20:38;;;;;;;11.23;8.68;;;27.60;93.70;;;;;;5063264;28;20102;-76
2023/06/19 09:23:04;;;;;;;14.13;8.60;;;27.80;92.90;;;;;;5068385;28;20643;-75
2023/06/19 09:25:30;;;;;;;12.48;8.75;;;28.00;93.00;;;;;;5068846;28;20071;-75
2023/06/19 09:27:56;;;;;;;11.10;8.52;;;28.00;93.10;;;;;;5063621;28;20048;-76
2023/06/19 09:30:22;;;;;;;14.15;8.48;;;28.10;93.60;;;;;;5063879;28;20032;-76
2023/06/19 09:32:49;;;;;;;14.00;8.73;;;28.20;93.10;;;;;;5062454;28;20040;-75
2023/06/19 09:35:15;;;;;;;11.77;8.98;;;28.40;94.10;;;;;;5063707;28;20516;-76
2023/06/19 09:37:41;;;;;;;9.52;7.75;;;28.50;94.10;;;;;;5068708;28;20506;-76
2023/06/19 09:40:10;;;;;;;11.13;8.05;;;28.40;93.90;;;;;;5061895;28;20128;-75
2023/06/19 09:42:43;;;;;;;8.77;7.03;;;28.50;93.90;;;;;;5065507;28;20024;-76
2023/06/19 09:45:15;;;;;;;13.43;7.78;;;28.60;94.20;;;;;;5065248;28;20074;-75
2023/06/19 09:47:45;;;;;;;9.77;8.07;;;28.70;92.50;;;;;;5065712;28;20136;-76
2023/06/19 09:50:13;;;;;;;9.73;7.90;;;28.00;92.40;;;;;;5066110;28;20521;-75
2023/06/19 09:52:41;;;;;;;10.35;7.53;;;28.20;93.20;;;;;;5067966;28;20039;-75
2023/06/19 09:55:09;;;;;;;10.82;8.50;;;28.30;92.00;;;;;;5070400;28;20499;-75
2023/06/19 09:57:35;;;;;;;10.80;8.27;;;28.60;93.50;;;;;;5066055;28;20044;-76
2023/06/19 10:00:12;;;;;;;12.43;8.55;;;28.40;92.60;;;;;;5065397;28;20049;-76
2023/06/19 10:02:41;;;;;;;14.35;8.77;;;28.40;93.40;;;;;;5078382;28;20126;-75
2023/06/19 10:05:12;;;;;;;12.65;8.45;;;28.80;93.30;;;;;;5065094;28;20112;-76
2023/06/19 10:07:40;;;;;;;9.88;7.95;;;28.80;92.70;;;;;;5063778;28;20032;-75
2023/06/19 10:10:09;;;;;;;10.30;8.43;;;28.70;92.90;;;;;;5068302;28;20032;-75
2023/06/19 10:12:43;;;;;;;9.95;7.80;;;28.70;93.70;;;;;;5065828;28;20028;-75
2023/06/19 10:15:23;;;;;;;11.90;7.88;;;28.70;93.30;;;;;;5075361;28;20089;-75
2023/06/19 10:17:50;;;;;;;11.80;8.35;;;28.90;93.90;;;;;;5073180;28;20490;-75
2023/06/19 10:20:32;;;;;;;12.52;8.90;;;29.10;92.90;;;;;;5077157;28;20028;-76
2023/06/19 10:23:17;;;;;;;13.35;8.07;;;29.00;92.80;;;;;;5074660;28;20028;-75
2023/06/19 10:25:45;;;;;;;12.85;8.63;;;28.90;93.20;;;;;;5073112;28;20024;-76
2023/06/19 10:28:21;;;;;;;10.10;7.78;;;29.00;93.20;;;;;;5078108;28;20024;-75
2023/06/19 10:31:02;;;;;;;8.88;7.18;;;29.50;93.20;;;;;;5071683;28;20348;-75
2023/06/19 10:33:32;;;;;;;10.95;8.85;;;29.70;92.70;;;;;;5076720;28;20036;-76
2023/06/19 10:35:59;;;;;;;11.52;8.02;;;29.40;93.00;;;;;;5073270;28;20950;-76
2023/06/19 10:38:25;;;;;;;9.35;7.45;;;29.60;92.70;;;;;;5075308;28;20028;-75
2023/06/19 10:40:51;;;;;;;10.02;6.55;;;29.90;92.80;;;;;;5082206;28;20077;-75
2023/06/19 10:43:22;;;;;;;11.60;7.30;;;29.90;92.40;;;;;;5079705;28;20039;-76
2023/06/19 10:45:48;;;;;;;9.98;6.93;;;30.00;92.60;;;;;;5080935;28;20023;-76
2023/06/19 10:48:22;;;;;;;9.02;6.97;;;30.00;92.50;;;;;;5079503;28;20086;-76
2023/06/19 10:50:48;;;;;;;8.00;6.38;;;30.10;92.30;;;;;;5075647;28;20028;-75
2023/06/19 10:53:33;;;;;;;9.50;6.53;;;30.30;92.70;;;;;;5071874;28;20093;-76
2023/06/19 10:56:01;;;;;;;9.52;6.70;;;30.30;91.10;;;;;;5065472;28;20127;-74
2023/06/19 10:58:28;;;;;;;8.52;6.75;;;30.30;92.70;;;;;;5062903;28;20082;-74
2023/06/19 11:00:54;;;;;;;8.95;7.07;;;30.50;92.10;;;;;;5065119;28;20067;-74
2023/06/19 11:03:21;;;;;;;12.15;7.07;;;30.50;91.90;;;;;;5066821;28;20608;-74
2023/06/19 11:05:48;;;;;;;10.05;6.97;;;30.40;91.90;;;;;;5065269;28;20035;-74
2023/06/19 11:08:21;;;;;;;9.95;7.05;;;30.30;91.50;;;;;;5064604;28;20052;-74
2023/06/19 11:10:48;;;;;;;12.73;6.93;;;30.50;91.30;;;;;;5072388;28;20035;-73
2023/06/19 11:13:15;;;;;;;8.27;7.00;;;30.50;91.90;;;;;;5065528;28;20040;-74
2023/06/19 11:15:41;;;;;;;9.50;6.68;;;30.10;91.50;;;;;;5066842;28;20108;-74
2023/06/19 11:18:07;;;;;;;10.10;6.90;;;30.30;91.40;;;;;;5065038;28;20440;-74
2023/06/19 11:20:53;;;;;;;10.48;6.38;;;30.40;91.90;;;;;;5075695;28;20640;-74
2023/06/19 11:23:31;;;;;;;8.95;7.00;;;30.40;91.60;;;;;;5065740;28;20048;-74
2023/06/19 11:26:04;;;;;;;11.95;7.30;;;30.40;91.60;;;;;;5063026;28;20103;-74
2023/06/19 11:28:30;;;;;;;9.77;8.00;;;29.90;91.30;;;;;;5063659;28;20630;-74
2023/06/19 11:31:03;;;;;;;9.60;6.90;;;30.00;91.80;;;;;;5069180;28;20028;-74
2023/06/19 11:33:30;;;;;;;9.38;6.85;;;30.00;91.60;;;;;;5074638;28;20533;-77
2023/06/19 11:36:00;;;;;;;8.32;6.47;;;30.10;91.50;;;;;;5072461;28;20077;-77
2023/06/19 11:38:26;;;;;;;9.52;6.28;;;30.10;91.70;;;;;;5070259;28;20183;-75
2023/06/19 11:40:54;;;;;;;8.55;6.38;;;30.10;91.90;;;;;;5071191;28;20435;-73
2023/06/19 11:43:27;;;;;;;10.50;6.55;;;30.20;91.70;;;;;;5065631;28;20046;-74
2023/06/19 11:45:53;;;;;;;10.60;6.75;;;30.40;91.70;;;;;;5066213;28;20025;-75
2023/06/19 11:48:25;;;;;;;9.30;6.57;;;30.40;91.40;;;;;;5072666;28;20032;-75
2023/06/19 11:50:52;;;;;;;13.45;6.63;;;30.70;91.50;;;;;;5067885;28;20028;-75
2023/06/19 11:53:22;;;;;;;9.65;7.10;;;30.80;91.40;;;;;;5074089;28;20393;-75
2023/06/19 11:55:48;;;;;;;11.35;7.70;;;30.60;91.80;;;;;;5064471;28;20502;-75
2023/06/19 11:58:15;;;;;;;8.95;6.88;;;30.50;92.00;;;;;;5063871;28;20029;-75
2023/06/19 12:00:41;;;;;;;10.23;7.38;;;30.40;91.90;;;;;;5064982;28;20462;-76
2023/06/19 12:03:08;;;;;;;10.63;7.68;;;30.60;92.40;;;;;;5066952;28;20059;-75
2023/06/19 12:05:33;;;;;;;9.68;7.05;;;30.80;91.70;;;;;;5063982;28;20880;-74
2023/06/19 12:08:02;;;;;;;11.00;6.78;;;30.60;91.90;;;;;;5066782;28;20111;-74
2023/06/19 12:10:28;;;;;;;9.77;6.90;;;30.90;91.40;;;;;;5062495;28;20029;-74
2023/06/19 12:12:54;;;;;;;9.88;6.82;;;30.80;91.80;;;;;;5059345;28;20064;-73
2023/06/19 12:15:19;;;;;;;9.88;6.65;;;30.80;91.40;;;;;;5068779;28;20552;-73
2023/06/19 12:17:46;;;;;;;11.38;7.13;;;30.80;92.10;;;;;;5064546;28;20032;-73
2023/06/19 12:20:13;;;;;;;9.68;6.93;;;30.80;91.20;;;;;;5068422;28;20048;-73
2023/06/19 12:22:39;;;;;;;9.27;6.20;;;30.70;91.10;;;;;;5068750;28;20072;-74
2023/06/19 12:25:05;;;;;;;11.35;7.13;;;30.90;91.70;;;;;;5074594;28;20847;-73
2023/06/19 12:27:31;;;;;;;12.20;7.50;;;31.00;91.80;;;;;;5063197;28;20112;-73
2023/06/19 12:29:56;;;;;;;7.35;6.43;;;31.00;91.10;;;;;;5065434;28;20113;-73
2023/06/19 12:32:22;;;;;;;11.48;7.05;;;30.90;91.00;;;;;;5061635;28;20676;-74
2023/06/19 12:34:48;;;;;;;7.80;6.25;;;30.90;90.90;;;;;;5069603;28;20033;-74
2023/06/19 12:37:15;;;;;;;11.13;6.72;;;30.80;91.10;;;;;;5063502;28;20529;-74
2023/06/19 12:39:41;;;;;;;7.63;6.57;;;30.80;90.70;;;;;;5064007;28;20299;-74
2023/06/19 12:42:07;;;;;;;12.20;6.32;;;30.90;91.20;;;;;;5060357;28;20039;-74